sensor_id;sensor_type;location;lat;lon;timestamp;P1;durP1;ratioP1;P2;durP2;ratioP2
23565;SDS011;22140;48.988;8.544;2023-07-29T00:02:45;6.57;;;1.63;;
23565;SDS011;22140;48.988;8.544;2023-07-29T00:07:47;8.03;;;1.27;;
23565;SDS011;22140;48.988;8.544;2023-07-29T00:12:48;5.70;;;1.40;;
23565;SDS011;22140;48.988;8.544;2023-07-29T00:17:49;6.65;;;1.33;;
23565;SDS011;22140;48.988;8.544;2023-07-29T00:22:51;5.72;;;1.52;;
23565;SDS011;22140;48.988;8.544;2023-07-29T00:27:55;4.50;;;1.20;;
23565;SDS011;22140;48.988;8.544;2023-07-29T00:32:57;4.97;;;1.40;;
23565;SDS011;22140;48.988;8.544;2023-07-29T00:37:58;7.28;;;1.30;;
23565;SDS011;22140;48.988;8.544;2023-07-29T00:42:59;8.70;;;1.30;;
23565;SDS011;22140;48.988;8.544;2023-07-29T00:48:04;7.13;;;1.42;;
23565;SDS011;22140;48.988;8.544;2023-07-29T00:53:06;4.60;;;1.40;;
23565;SDS011;22140;48.988;8.544;2023-07-29T00:58:07;6.30;;;1.40;;
23565;SDS011;22140;48.988;8.544;2023-07-29T01:03:08;4.77;;;1.43;;
23565;SDS011;22140;48.988;8.544;2023-07-29T01:08:20;6.57;;;1.40;;
23565;SDS011;22140;48.988;8.544;2023-07-29T01:13:25;7.47;;;1.23;;
23565;SDS011;22140;48.988;8.544;2023-07-29T01:18:28;5.27;;;1.30;;
23565;SDS011;22140;48.988;8.544;2023-07-29T01:23:31;6.00;;;1.60;;
23565;SDS011;22140;48.988;8.544;2023-07-29T01:28:32;8.00;;;1.50;;
23565;SDS011;22140;48.988;8.544;2023-07-29T01:33:35;6.33;;;1.77;;
23565;SDS011;22140;48.988;8.544;2023-07-29T01:38:40;6.00;;;1.42;;
23565;SDS011;22140;48.988;8.544;2023-07-29T01:43:42;5.00;;;1.55;;
23565;SDS011;22140;48.988;8.544;2023-07-29T01:48:45;9.57;;;1.83;;
23565;SDS011;22140;48.988;8.544;2023-07-29T01:53:46;6.20;;;1.67;;
23565;SDS011;22140;48.988;8.544;2023-07-29T01:58:48;6.78;;;1.30;;
23565;SDS011;22140;48.988;8.544;2023-07-29T02:03:49;6.50;;;1.45;;
23565;SDS011;22140;48.988;8.544;2023-07-29T02:08:56;5.07;;;1.10;;
23565;SDS011;22140;48.988;8.544;2023-07-29T02:13:57;4.55;;;1.30;;
23565;SDS011;22140;48.988;8.544;2023-07-29T02:18:59;6.55;;;1.40;;
23565;SDS011;22140;48.988;8.544;2023-07-29T02:24:00;6.70;;;1.30;;
23565;SDS011;22140;48.988;8.544;2023-07-29T02:29:02;7.68;;;1.60;;
23565;SDS011;22140;48.988;8.544;2023-07-29T02:34:06;4.43;;;1.42;;
23565;SDS011;22140;48.988;8.544;2023-07-29T02:39:07;8.70;;;1.30;;
23565;SDS011;22140;48.988;8.544;2023-07-29T02:44:09;5.73;;;1.67;;
23565;SDS011;22140;48.988;8.544;2023-07-29T02:49:10;6.43;;;1.60;;
23565;SDS011;22140;48.988;8.544;2023-07-29T02:54:14;6.07;;;1.48;;
23565;SDS011;22140;48.988;8.544;2023-07-29T02:59:16;5.70;;;1.50;;
23565;SDS011;22140;48.988;8.544;2023-07-29T03:04:17;5.72;;;1.30;;
23565;SDS011;22140;48.988;8.544;2023-07-29T03:09:19;5.63;;;1.23;;
23565;SDS011;22140;48.988;8.544;2023-07-29T03:14:20;4.97;;;1.40;;
23565;SDS011;22140;48.988;8.544;2023-07-29T03:19:24;7.57;;;1.38;;
23565;SDS011;22140;48.988;8.544;2023-07-29T03:24:26;6.00;;;1.67;;
23565;SDS011;22140;48.988;8.544;2023-07-29T03:29:27;6.67;;;1.30;;
23565;SDS011;22140;48.988;8.544;2023-07-29T03:34:30;11.13;;;1.50;;
23565;SDS011;22140;48.988;8.544;2023-07-29T03:39:31;6.95;;;1.40;;
23565;SDS011;22140;48.988;8.544;2023-07-29T03:44:36;5.75;;;1.20;;
23565;SDS011;22140;48.988;8.544;2023-07-29T03:49:37;6.00;;;1.27;;
23565;SDS011;22140;48.988;8.544;2023-07-29T03:54:39;5.15;;;1.38;;
23565;SDS011;22140;48.988;8.544;2023-07-29T03:59:40;7.18;;;1.10;;
23565;SDS011;22140;48.988;8.544;2023-07-29T04:04:41;8.03;;;1.33;;
23565;SDS011;22140;48.988;8.544;2023-07-29T04:09:45;11.20;;;2.28;;
23565;SDS011;22140;48.988;8.544;2023-07-29T04:14:46;6.20;;;1.42;;
23565;SDS011;22140;48.988;8.544;2023-07-29T04:19:48;12.20;;;1.57;;
23565;SDS011;22140;48.988;8.544;2023-07-29T04:24:49;4.82;;;1.30;;
23565;SDS011;22140;48.988;8.544;2023-07-29T04:29:50;4.45;;;1.40;;
23565;SDS011;22140;48.988;8.544;2023-07-29T04:34:52;7.00;;;1.30;;
23565;SDS011;22140;48.988;8.544;2023-07-29T04:39:53;6.20;;;1.50;;
23565;SDS011;22140;48.988;8.544;2023-07-29T04:44:54;5.55;;;1.20;;
23565;SDS011;22140;48.988;8.544;2023-07-29T04:49:56;7.47;;;1.45;;
23565;SDS011;22140;48.988;8.544;2023-07-29T04:54:57;6.30;;;1.70;;
23565;SDS011;22140;48.988;8.544;2023-07-29T04:59:58;11.35;;;1.70;;
23565;SDS011;22140;48.988;8.544;2023-07-29T05:05:00;6.68;;;1.60;;
23565;SDS011;22140;48.988;8.544;2023-07-29T05:10:01;6.83;;;1.40;;
23565;SDS011;22140;48.988;8.544;2023-07-29T05:15:05;5.30;;;1.48;;
23565;SDS011;22140;48.988;8.544;2023-07-29T05:20:07;6.95;;;1.50;;
23565;SDS011;22140;48.988;8.544;2023-07-29T05:25:09;5.73;;;1.73;;
23565;SDS011;22140;48.988;8.544;2023-07-29T05:30:10;7.63;;;1.97;;
23565;SDS011;22140;48.988;8.544;2023-07-29T05:35:12;5.72;;;1.45;;
23565;SDS011;22140;48.988;8.544;2023-07-29T05:40:13;5.85;;;1.70;;
23565;SDS011;22140;48.988;8.544;2023-07-29T05:45:15;7.33;;;1.47;;
23565;SDS011;22140;48.988;8.544;2023-07-29T05:50:16;5.35;;;1.52;;
23565;SDS011;22140;48.988;8.544;2023-07-29T05:55:17;6.30;;;1.48;;
23565;SDS011;22140;48.988;8.544;2023-07-29T06:00:19;5.83;;;1.40;;
23565;SDS011;22140;48.988;8.544;2023-07-29T06:05:20;6.28;;;1.67;;
23565;SDS011;22140;48.988;8.544;2023-07-29T06:10:24;5.30;;;1.45;;
23565;SDS011;22140;48.988;8.544;2023-07-29T06:15:26;7.53;;;1.60;;
23565;SDS011;22140;48.988;8.544;2023-07-29T06:20:28;5.17;;;1.70;;
23565;SDS011;22140;48.988;8.544;2023-07-29T06:25:29;6.40;;;1.58;;
23565;SDS011;22140;48.988;8.544;2023-07-29T06:30:30;5.13;;;1.70;;
23565;SDS011;22140;48.988;8.544;2023-07-29T06:35:32;7.20;;;1.53;;
23565;SDS011;22140;48.988;8.544;2023-07-29T06:40:33;5.38;;;1.50;;
23565;SDS011;22140;48.988;8.544;2023-07-29T06:45:35;5.22;;;1.55;;
23565;SDS011;22140;48.988;8.544;2023-07-29T06:50:36;5.33;;;1.60;;
23565;SDS011;22140;48.988;8.544;2023-07-29T06:55:39;5.85;;;1.35;;
23565;SDS011;22140;48.988;8.544;2023-07-29T07:00:41;4.30;;;1.27;;
23565;SDS011;22140;48.988;8.544;2023-07-29T07:05:42;4.53;;;1.50;;
23565;SDS011;22140;48.988;8.544;2023-07-29T07:10:47;6.83;;;1.60;;
23565;SDS011;22140;48.988;8.544;2023-07-29T07:15:50;4.82;;;1.52;;
23565;SDS011;22140;48.988;8.544;2023-07-29T07:20:51;5.72;;;1.60;;
23565;SDS011;22140;48.988;8.544;2023-07-29T07:25:53;5.20;;;1.30;;
23565;SDS011;22140;48.988;8.544;2023-07-29T07:30:55;4.75;;;1.27;;
23565;SDS011;22140;48.988;8.544;2023-07-29T07:35:57;5.25;;;1.40;;
23565;SDS011;22140;48.988;8.544;2023-07-29T07:41:01;5.20;;;1.47;;
23565;SDS011;22140;48.988;8.544;2023-07-29T07:46:02;6.10;;;1.27;;
23565;SDS011;22140;48.988;8.544;2023-07-29T07:51:11;4.78;;;1.23;;
23565;SDS011;22140;48.988;8.544;2023-07-29T07:56:13;4.50;;;1.47;;
23565;SDS011;22140;48.988;8.544;2023-07-29T08:01:16;4.17;;;1.10;;
23565;SDS011;22140;48.988;8.544;2023-07-29T08:06:17;4.28;;;1.13;;
23565;SDS011;22140;48.988;8.544;2023-07-29T08:11:18;4.50;;;1.20;;
23565;SDS011;22140;48.988;8.544;2023-07-29T08:16:20;5.43;;;1.40;;
23565;SDS011;22140;48.988;8.544;2023-07-29T08:21:21;4.68;;;1.50;;
23565;SDS011;22140;48.988;8.544;2023-07-29T08:26:25;5.30;;;1.50;;
23565;SDS011;22140;48.988;8.544;2023-07-29T08:31:27;6.20;;;1.63;;
23565;SDS011;22140;48.988;8.544;2023-07-29T08:36:28;7.40;;;1.20;;
23565;SDS011;22140;48.988;8.544;2023-07-29T08:42:13;6.32;;;1.42;;
23565;SDS011;22140;48.988;8.544;2023-07-29T08:46:54;4.53;;;1.30;;
23565;SDS011;22140;48.988;8.544;2023-07-29T08:51:58;4.27;;;1.10;;
23565;SDS011;22140;48.988;8.544;2023-07-29T08:57:00;13.23;;;2.72;;
23565;SDS011;22140;48.988;8.544;2023-07-29T09:02:02;5.88;;;1.70;;
23565;SDS011;22140;48.988;8.544;2023-07-29T09:07:03;5.50;;;1.43;;
23565;SDS011;22140;48.988;8.544;2023-07-29T09:12:06;6.13;;;1.55;;
23565;SDS011;22140;48.988;8.544;2023-07-29T09:17:08;5.15;;;1.40;;
23565;SDS011;22140;48.988;8.544;2023-07-29T09:22:20;6.87;;;1.57;;
23565;SDS011;22140;48.988;8.544;2023-07-29T09:27:28;6.10;;;1.50;;
23565;SDS011;22140;48.988;8.544;2023-07-29T09:32:32;5.57;;;1.45;;
23565;SDS011;22140;48.988;8.544;2023-07-29T09:37:33;4.70;;;1.40;;
23565;SDS011;22140;48.988;8.544;2023-07-29T09:42:35;4.67;;;1.40;;
23565;SDS011;22140;48.988;8.544;2023-07-29T09:47:36;5.63;;;1.52;;
23565;SDS011;22140;48.988;8.544;2023-07-29T09:52:38;6.38;;;1.75;;
23565;SDS011;22140;48.988;8.544;2023-07-29T09:57:40;6.27;;;1.90;;
23565;SDS011;22140;48.988;8.544;2023-07-29T10:02:42;4.53;;;1.40;;
23565;SDS011;22140;48.988;8.544;2023-07-29T10:07:43;4.70;;;1.20;;
23565;SDS011;22140;48.988;8.544;2023-07-29T10:12:45;4.23;;;1.30;;
23565;SDS011;22140;48.988;8.544;2023-07-29T10:17:47;4.20;;;1.20;;
23565;SDS011;22140;48.988;8.544;2023-07-29T10:22:50;4.47;;;1.35;;
23565;SDS011;22140;48.988;8.544;2023-07-29T10:27:53;7.23;;;1.73;;
23565;SDS011;22140;48.988;8.544;2023-07-29T10:33:03;6.03;;;1.73;;
23565;SDS011;22140;48.988;8.544;2023-07-29T10:38:06;4.50;;;1.40;;
23565;SDS011;22140;48.988;8.544;2023-07-29T10:43:11;4.45;;;1.42;;
23565;SDS011;22140;48.988;8.544;2023-07-29T10:48:13;4.10;;;1.10;;
23565;SDS011;22140;48.988;8.544;2023-07-29T10:53:34;4.72;;;1.30;;
23565;SDS011;22140;48.988;8.544;2023-07-29T10:58:38;4.25;;;1.20;;
23565;SDS011;22140;48.988;8.544;2023-07-29T11:03:39;5.70;;;1.40;;
23565;SDS011;22140;48.988;8.544;2023-07-29T11:08:40;4.53;;;1.15;;
23565;SDS011;22140;48.988;8.544;2023-07-29T11:13:42;5.28;;;1.30;;
23565;SDS011;22140;48.988;8.544;2023-07-29T11:18:44;4.23;;;1.17;;
23565;SDS011;22140;48.988;8.544;2023-07-29T11:23:47;4.53;;;1.10;;
23565;SDS011;22140;48.988;8.544;2023-07-29T11:28:50;4.35;;;1.30;;
23565;SDS011;22140;48.988;8.544;2023-07-29T11:33:52;4.03;;;1.25;;
23565;SDS011;22140;48.988;8.544;2023-07-29T11:38:53;4.47;;;1.00;;
23565;SDS011;22140;48.988;8.544;2023-07-29T11:43:54;3.58;;;1.10;;
23565;SDS011;22140;48.988;8.544;2023-07-29T11:48:56;6.25;;;1.23;;
23565;SDS011;22140;48.988;8.544;2023-07-29T11:53:57;4.60;;;1.30;;
23565;SDS011;22140;48.988;8.544;2023-07-29T11:58:59;3.35;;;0.90;;
23565;SDS011;22140;48.988;8.544;2023-07-29T12:04:00;4.15;;;1.20;;
23565;SDS011;22140;48.988;8.544;2023-07-29T12:09:02;6.50;;;1.33;;
23565;SDS011;22140;48.988;8.544;2023-07-29T12:14:03;5.40;;;1.50;;
23565;SDS011;22140;48.988;8.544;2023-07-29T12:19:12;5.88;;;1.60;;
23565;SDS011;22140;48.988;8.544;2023-07-29T12:24:14;5.95;;;1.45;;
23565;SDS011;22140;48.988;8.544;2023-07-29T12:29:17;6.77;;;1.47;;
23565;SDS011;22140;48.988;8.544;2023-07-29T12:34:21;4.03;;;1.20;;
23565;SDS011;22140;48.988;8.544;2023-07-29T12:39:24;5.82;;;1.40;;
23565;SDS011;22140;48.988;8.544;2023-07-29T12:44:30;7.30;;;1.50;;
23565;SDS011;22140;48.988;8.544;2023-07-29T12:49:32;5.97;;;1.52;;
23565;SDS011;22140;48.988;8.544;2023-07-29T12:54:33;4.75;;;1.33;;
23565;SDS011;22140;48.988;8.544;2023-07-29T12:59:35;5.57;;;1.50;;
23565;SDS011;22140;48.988;8.544;2023-07-29T13:04:36;5.57;;;1.43;;
23565;SDS011;22140;48.988;8.544;2023-07-29T13:09:37;5.95;;;1.60;;
23565;SDS011;22140;48.988;8.544;2023-07-29T13:14:39;4.55;;;1.33;;
23565;SDS011;22140;48.988;8.544;2023-07-29T13:19:40;4.77;;;1.30;;
23565;SDS011;22140;48.988;8.544;2023-07-29T13:24:41;5.10;;;1.52;;
23565;SDS011;22140;48.988;8.544;2023-07-29T13:29:43;5.35;;;1.50;;
23565;SDS011;22140;48.988;8.544;2023-07-29T13:34:48;6.00;;;1.50;;
23565;SDS011;22140;48.988;8.544;2023-07-29T13:39:49;12.13;;;1.88;;
23565;SDS011;22140;48.988;8.544;2023-07-29T13:44:50;5.25;;;1.40;;
23565;SDS011;22140;48.988;8.544;2023-07-29T13:49:52;4.47;;;1.50;;
23565;SDS011;22140;48.988;8.544;2023-07-29T13:54:53;5.83;;;1.70;;
23565;SDS011;22140;48.988;8.544;2023-07-29T13:59:57;4.60;;;1.48;;
23565;SDS011;22140;48.988;8.544;2023-07-29T14:04:59;5.10;;;1.65;;
23565;SDS011;22140;48.988;8.544;2023-07-29T14:10:00;4.27;;;1.40;;
23565;SDS011;22140;48.988;8.544;2023-07-29T14:15:03;8.35;;;1.85;;
23565;SDS011;22140;48.988;8.544;2023-07-29T14:20:05;5.28;;;1.60;;
23565;SDS011;22140;48.988;8.544;2023-07-29T14:25:09;5.47;;;1.57;;
23565;SDS011;22140;48.988;8.544;2023-07-29T14:30:11;4.50;;;1.50;;
23565;SDS011;22140;48.988;8.544;2023-07-29T14:35:13;4.50;;;1.50;;
23565;SDS011;22140;48.988;8.544;2023-07-29T14:40:17;5.57;;;1.60;;
23565;SDS011;22140;48.988;8.544;2023-07-29T14:45:18;5.57;;;1.83;;
23565;SDS011;22140;48.988;8.544;2023-07-29T14:50:22;4.70;;;1.48;;
23565;SDS011;22140;48.988;8.544;2023-07-29T14:55:27;7.20;;;1.90;;
23565;SDS011;22140;48.988;8.544;2023-07-29T15:00:28;6.63;;;1.77;;
23565;SDS011;22140;48.988;8.544;2023-07-29T15:05:29;4.97;;;1.70;;
23565;SDS011;22140;48.988;8.544;2023-07-29T15:10:31;6.05;;;1.70;;
23565;SDS011;22140;48.988;8.544;2023-07-29T15:15:32;8.27;;;1.90;;
23565;SDS011;22140;48.988;8.544;2023-07-29T15:20:33;5.00;;;1.83;;
23565;SDS011;22140;48.988;8.544;2023-07-29T15:25:35;6.80;;;1.67;;
23565;SDS011;22140;48.988;8.544;2023-07-29T15:30:36;4.87;;;1.63;;
23565;SDS011;22140;48.988;8.544;2023-07-29T15:35:38;5.40;;;1.90;;
23565;SDS011;22140;48.988;8.544;2023-07-29T15:40:43;5.32;;;1.77;;
23565;SDS011;22140;48.988;8.544;2023-07-29T15:45:45;6.22;;;2.13;;
23565;SDS011;22140;48.988;8.544;2023-07-29T15:50:47;6.03;;;1.73;;
23565;SDS011;22140;48.988;8.544;2023-07-29T15:55:49;4.90;;;1.90;;
23565;SDS011;22140;48.988;8.544;2023-07-29T16:00:50;4.85;;;1.80;;
23565;SDS011;22140;48.988;8.544;2023-07-29T16:05:52;5.57;;;1.80;;
23565;SDS011;22140;48.988;8.544;2023-07-29T16:10:53;6.13;;;1.73;;
23565;SDS011;22140;48.988;8.544;2023-07-29T16:15:55;7.70;;;2.13;;
23565;SDS011;22140;48.988;8.544;2023-07-29T16:20:56;5.47;;;2.00;;
23565;SDS011;22140;48.988;8.544;2023-07-29T16:26:03;6.03;;;2.20;;
23565;SDS011;22140;48.988;8.544;2023-07-29T16:31:04;5.28;;;2.15;;
23565;SDS011;22140;48.988;8.544;2023-07-29T16:36:06;6.40;;;2.10;;
23565;SDS011;22140;48.988;8.544;2023-07-29T16:41:10;6.73;;;1.60;;
23565;SDS011;22140;48.988;8.544;2023-07-29T16:46:25;4.95;;;1.90;;
23565;SDS011;22140;48.988;8.544;2023-07-29T16:51:28;6.18;;;1.85;;
23565;SDS011;22140;48.988;8.544;2023-07-29T16:56:29;6.00;;;1.93;;
23565;SDS011;22140;48.988;8.544;2023-07-29T17:01:31;5.22;;;1.92;;
23565;SDS011;22140;48.988;8.544;2023-07-29T17:06:32;5.40;;;1.70;;
23565;SDS011;22140;48.988;8.544;2023-07-29T17:11:33;5.00;;;1.83;;
23565;SDS011;22140;48.988;8.544;2023-07-29T17:16:35;7.13;;;2.10;;
23565;SDS011;22140;48.988;8.544;2023-07-29T17:21:37;5.95;;;1.90;;
23565;SDS011;22140;48.988;8.544;2023-07-29T17:26:38;6.00;;;1.85;;
23565;SDS011;22140;48.988;8.544;2023-07-29T17:31:40;5.93;;;2.00;;
23565;SDS011;22140;48.988;8.544;2023-07-29T17:36:44;5.75;;;2.00;;
23565;SDS011;22140;48.988;8.544;2023-07-29T17:41:49;5.50;;;2.10;;
23565;SDS011;22140;48.988;8.544;2023-07-29T17:46:50;6.17;;;2.00;;
23565;SDS011;22140;48.988;8.544;2023-07-29T17:51:52;6.57;;;1.80;;
23565;SDS011;22140;48.988;8.544;2023-07-29T17:56:56;5.43;;;1.90;;
23565;SDS011;22140;48.988;8.544;2023-07-29T18:01:57;6.13;;;1.60;;
23565;SDS011;22140;48.988;8.544;2023-07-29T18:06:59;5.33;;;1.80;;
23565;SDS011;22140;48.988;8.544;2023-07-29T18:12:00;5.10;;;1.73;;
23565;SDS011;22140;48.988;8.544;2023-07-29T18:17:07;5.10;;;1.90;;
23565;SDS011;22140;48.988;8.544;2023-07-29T18:22:09;5.87;;;1.90;;
23565;SDS011;22140;48.988;8.544;2023-07-29T18:27:10;5.70;;;2.00;;
23565;SDS011;22140;48.988;8.544;2023-07-29T18:32:13;6.80;;;1.80;;
23565;SDS011;22140;48.988;8.544;2023-07-29T18:37:17;6.10;;;2.07;;
23565;SDS011;22140;48.988;8.544;2023-07-29T18:42:18;7.25;;;2.00;;
23565;SDS011;22140;48.988;8.544;2023-07-29T18:47:19;8.45;;;2.40;;
23565;SDS011;22140;48.988;8.544;2023-07-29T18:52:21;6.83;;;2.07;;
23565;SDS011;22140;48.988;8.544;2023-07-29T18:57:22;6.33;;;1.97;;
23565;SDS011;22140;48.988;8.544;2023-07-29T19:02:24;7.03;;;2.22;;
23565;SDS011;22140;48.988;8.544;2023-07-29T19:07:25;7.47;;;2.10;;
23565;SDS011;22140;48.988;8.544;2023-07-29T19:12:27;6.17;;;1.90;;
23565;SDS011;22140;48.988;8.544;2023-07-29T19:17:28;8.35;;;2.13;;
23565;SDS011;22140;48.988;8.544;2023-07-29T19:22:30;6.00;;;1.80;;
23565;SDS011;22140;48.988;8.544;2023-07-29T19:27:31;5.50;;;1.90;;
23565;SDS011;22140;48.988;8.544;2023-07-29T19:32:32;7.20;;;1.65;;
23565;SDS011;22140;48.988;8.544;2023-07-29T19:37:34;7.93;;;2.00;;
23565;SDS011;22140;48.988;8.544;2023-07-29T19:42:35;6.50;;;1.77;;
23565;SDS011;22140;48.988;8.544;2023-07-29T19:47:36;7.87;;;2.00;;
23565;SDS011;22140;48.988;8.544;2023-07-29T19:52:38;6.18;;;1.95;;
23565;SDS011;22140;48.988;8.544;2023-07-29T19:57:39;5.57;;;1.95;;
23565;SDS011;22140;48.988;8.544;2023-07-29T20:02:40;6.57;;;2.13;;
23565;SDS011;22140;48.988;8.544;2023-07-29T20:07:42;5.75;;;1.95;;
23565;SDS011;22140;48.988;8.544;2023-07-29T20:12:43;6.38;;;1.92;;
23565;SDS011;22140;48.988;8.544;2023-07-29T20:17:45;7.07;;;2.00;;
23565;SDS011;22140;48.988;8.544;2023-07-29T20:22:46;6.43;;;2.08;;
23565;SDS011;22140;48.988;8.544;2023-07-29T20:27:47;6.88;;;2.20;;
23565;SDS011;22140;48.988;8.544;2023-07-29T20:32:49;6.47;;;2.00;;
23565;SDS011;22140;48.988;8.544;2023-07-29T20:37:50;6.73;;;2.00;;
23565;SDS011;22140;48.988;8.544;2023-07-29T20:42:52;6.50;;;2.20;;
23565;SDS011;22140;48.988;8.544;2023-07-29T20:47:53;8.25;;;2.05;;
23565;SDS011;22140;48.988;8.544;2023-07-29T20:52:55;5.83;;;1.90;;
23565;SDS011;22140;48.988;8.544;2023-07-29T20:57:56;7.13;;;2.10;;
23565;SDS011;22140;48.988;8.544;2023-07-29T21:02:58;7.65;;;2.03;;
23565;SDS011;22140;48.988;8.544;2023-07-29T21:07:59;7.20;;;2.60;;
23565;SDS011;22140;48.988;8.544;2023-07-29T21:13:01;8.32;;;2.15;;
23565;SDS011;22140;48.988;8.544;2023-07-29T21:18:02;6.90;;;2.20;;
23565;SDS011;22140;48.988;8.544;2023-07-29T21:23:03;6.30;;;2.40;;
23565;SDS011;22140;48.988;8.544;2023-07-29T21:28:05;6.63;;;2.17;;
23565;SDS011;22140;48.988;8.544;2023-07-29T21:33:06;6.53;;;1.88;;
23565;SDS011;22140;48.988;8.544;2023-07-29T21:38:08;9.90;;;2.40;;
23565;SDS011;22140;48.988;8.544;2023-07-29T21:43:29;9.30;;;2.30;;
23565;SDS011;22140;48.988;8.544;2023-07-29T21:48:30;8.07;;;2.30;;
23565;SDS011;22140;48.988;8.544;2023-07-29T21:53:32;6.40;;;2.50;;
23565;SDS011;22140;48.988;8.544;2023-07-29T21:58:33;7.10;;;2.50;;
23565;SDS011;22140;48.988;8.544;2023-07-29T22:03:35;8.80;;;3.00;;
23565;SDS011;22140;48.988;8.544;2023-07-29T22:08:36;7.82;;;2.80;;
23565;SDS011;22140;48.988;8.544;2023-07-29T22:13:38;7.13;;;2.70;;
23565;SDS011;22140;48.988;8.544;2023-07-29T22:18:39;14.60;;;3.13;;
23565;SDS011;22140;48.988;8.544;2023-07-29T22:23:40;7.97;;;3.00;;
23565;SDS011;22140;48.988;8.544;2023-07-29T22:29:00;8.02;;;2.67;;
23565;SDS011;22140;48.988;8.544;2023-07-29T22:34:02;8.53;;;2.67;;
23565;SDS011;22140;48.988;8.544;2023-07-29T22:39:04;8.02;;;2.50;;
23565;SDS011;22140;48.988;8.544;2023-07-29T22:44:05;5.72;;;2.40;;
23565;SDS011;22140;48.988;8.544;2023-07-29T22:49:06;6.00;;;2.33;;
23565;SDS011;22140;48.988;8.544;2023-07-29T22:54:08;7.28;;;2.50;;
23565;SDS011;22140;48.988;8.544;2023-07-29T22:59:09;7.13;;;2.22;;
23565;SDS011;22140;48.988;8.544;2023-07-29T23:04:10;6.67;;;2.20;;
23565;SDS011;22140;48.988;8.544;2023-07-29T23:09:13;5.90;;;1.70;;
23565;SDS011;22140;48.988;8.544;2023-07-29T23:14:14;5.85;;;1.25;;
23565;SDS011;22140;48.988;8.544;2023-07-29T23:19:16;5.50;;;1.00;;
23565;SDS011;22140;48.988;8.544;2023-07-29T23:24:17;4.27;;;1.20;;
23565;SDS011;22140;48.988;8.544;2023-07-29T23:29:18;5.70;;;1.10;;
23565;SDS011;22140;48.988;8.544;2023-07-29T23:34:20;4.53;;;1.00;;
23565;SDS011;22140;48.988;8.544;2023-07-29T23:39:21;6.73;;;0.90;;
23565;SDS011;22140;48.988;8.544;2023-07-29T23:44:23;4.60;;;0.80;;
23565;SDS011;22140;48.988;8.544;2023-07-29T23:49:24;5.00;;;0.90;;
23565;SDS011;22140;48.988;8.544;2023-07-29T23:54:25;4.17;;;0.80;;
23565;SDS011;22140;48.988;8.544;2023-07-29T23:59:27;3.43;;;0.80;;
